createdAt,value
2018-09-24T00:01:11.475Z,79.43
2018-09-24T00:03:39.206Z,79.26
2018-09-24T00:06:08.104Z,79.58
2018-09-24T00:08:35.850Z,80.41
2018-09-24T00:11:04.756Z,80.74
2018-09-24T00:13:33.070Z,80.44
2018-09-24T00:16:00.825Z,80.14
2018-09-24T00:18:29.716Z,80.03
2018-09-24T00:20:58.035Z,79.99
2018-09-24T00:23:25.772Z,79.84
2018-09-24T00:25:54.674Z,79.70
2018-09-24T00:28:22.988Z,79.74
2018-09-24T00:30:50.740Z,79.80
2018-09-24T00:33:19.064Z,79.71
2018-09-24T00:35:47.382Z,79.72
2018-09-24T00:38:16.301Z,79.71
2018-09-24T00:40:44.630Z,79.63
2018-09-24T00:43:12.423Z,79.58
2018-09-24T00:45:41.276Z,79.42
2018-09-24T00:48:09.017Z,78.91
2018-09-24T00:50:37.917Z,78.04
2018-09-24T00:53:06.244Z,78.40
2018-09-24T00:55:34.552Z,78.72
2018-09-24T00:58:02.869Z,78.63
2018-09-24T01:00:31.194Z,78.48
2018-09-24T01:02:59.565Z,78.19
2018-09-24T01:05:27.829Z,78.89
2018-09-24T01:07:56.142Z,79.17
2018-09-24T01:10:23.882Z,79.54
2018-09-24T01:12:52.790Z,79.84
2018-09-24T01:15:21.113Z,80.42
2018-09-24T01:17:49.430Z,80.21
2018-09-24T01:20:17.181Z,83.46
2018-09-24T01:22:45.491Z,85.05
2018-09-24T01:25:14.391Z,85.51
2018-09-24T01:27:42.699Z,85.43
2018-09-24T01:30:11.041Z,85.20
2018-09-24T01:32:39.353Z,85.27
2018-09-24T01:35:07.084Z,85.58
2018-09-24T01:37:35.998Z,85.38
2018-09-24T01:40:04.307Z,85.68
2018-09-24T01:42:32.626Z,85.98
2018-09-24T01:45:00.940Z,86.19
2018-09-24T01:47:28.681Z,86.26
2018-09-24T01:49:56.996Z,86.46
2018-09-24T01:52:25.897Z,86.16
2018-09-24T01:54:54.217Z,86.29
2018-09-24T01:57:22.549Z,85.75
2018-09-24T01:59:50.857Z,86.09
2018-09-24T02:02:18.590Z,85.73
2018-09-24T02:04:47.481Z,86.14
2018-09-24T02:07:15.800Z,86.46
2018-09-24T02:09:44.121Z,86.31
2018-09-24T02:12:12.434Z,86.15
2018-09-24T02:14:40.755Z,85.87
2018-09-24T02:17:08.488Z,86.53
2018-09-24T02:19:37.723Z,86.57
2018-09-24T02:22:05.470Z,86.64
2018-09-24T02:24:33.786Z,86.71
2018-09-24T02:27:02.680Z,86.66
2018-09-24T02:29:31.032Z,86.57
2018-09-24T02:31:58.778Z,86.44
2018-09-24T02:34:27.086Z,86.71
2018-09-24T02:36:55.989Z,86.52
2018-09-24T02:39:24.297Z,86.66
2018-09-24T02:41:52.652Z,86.91
2018-09-24T02:44:20.970Z,87.30
2018-09-24T02:46:48.707Z,87.38
2018-09-24T02:49:17.616Z,87.53
2018-09-24T02:51:45.928Z,87.40
2018-09-24T02:54:14.246Z,87.30
2018-09-24T02:56:42.564Z,87.63
2018-09-24T02:59:10.880Z,87.67
2018-09-24T03:01:39.201Z,87.86
2018-09-24T03:04:07.368Z,87.86
2018-09-24T03:06:35.253Z,87.90
2018-09-24T03:09:04.149Z,87.87
2018-09-24T03:11:31.870Z,87.97
2018-09-24T03:14:00.761Z,87.78
2018-09-24T03:16:28.491Z,87.72
2018-09-24T03:18:57.376Z,87.87
2018-09-24T03:21:25.102Z,88.06
2018-09-24T03:23:53.993Z,88.37
2018-09-24T03:26:21.733Z,88.44
2018-09-24T03:28:50.626Z,88.39
2018-09-24T03:31:18.354Z,87.97
2018-09-24T03:33:46.841Z,87.90
2018-09-24T03:36:15.572Z,87.70
2018-09-24T03:38:43.887Z,87.59
2018-09-24T03:41:11.629Z,87.49
2018-09-24T03:43:40.536Z,87.53
2018-09-24T03:46:08.868Z,87.62
2018-09-24T03:48:37.184Z,87.59
2018-09-24T03:51:05.487Z,87.51
2018-09-24T03:53:33.224Z,87.71
2018-09-24T03:56:01.555Z,87.61
2018-09-24T03:58:29.874Z,87.72
2018-09-24T04:00:58.202Z,87.60
2018-09-24T04:03:27.095Z,87.72
2018-09-24T04:06:00.548Z,87.62
2018-09-24T04:08:34.417Z,87.72
2018-09-24T04:11:08.413Z,87.83
2018-09-24T04:13:42.818Z,87.70
2018-09-24T04:16:16.139Z,87.71
2018-09-24T04:18:50.243Z,87.75
2018-09-24T04:21:24.736Z,87.74
2018-09-24T04:23:58.048Z,87.87
2018-09-24T04:26:32.943Z,87.86
2018-09-24T04:29:06.701Z,87.68
2018-09-24T04:31:41.059Z,87.59
2018-09-24T04:34:15.071Z,87.52
2018-09-24T04:36:49.032Z,87.29
2018-09-24T04:39:23.171Z,87.24
2018-09-24T04:41:56.983Z,87.09
2018-09-24T04:44:30.364Z,86.92
2018-09-24T04:47:04.366Z,86.68
2018-09-24T04:49:38.896Z,86.55
2018-09-24T04:52:12.845Z,86.61
2018-09-24T04:54:46.121Z,86.40
2018-09-24T04:57:21.106Z,86.20
2018-09-24T04:59:54.353Z,86.08
2018-09-24T05:02:28.974Z,85.93
2018-09-24T05:05:02.828Z,85.84
2018-09-24T05:07:36.736Z,85.63
2018-09-24T05:10:10.576Z,85.61
2018-09-24T05:12:44.525Z,85.78
2018-09-24T05:15:18.449Z,85.69
2018-09-24T05:17:52.556Z,85.57
2018-09-24T05:20:25.859Z,85.38
2018-09-24T05:23:00.758Z,85.45
2018-09-24T05:25:34.032Z,85.41
2018-09-24T05:28:08.811Z,85.28
2018-09-24T05:30:42.602Z,85.04
2018-09-24T05:33:16.459Z,84.79
2018-09-24T05:35:50.399Z,84.34
2018-09-24T05:38:23.794Z,83.95
2018-09-24T05:40:57.767Z,83.80
2018-09-24T05:43:32.134Z,83.29
2018-09-24T05:46:06.133Z,83.28
2018-09-24T05:48:39.457Z,82.59
2018-09-24T05:51:14.035Z,81.71
2018-09-24T05:53:47.358Z,81.75
2018-09-24T05:56:21.370Z,81.36
2018-09-24T05:58:56.062Z,81.60
2018-09-24T06:01:29.364Z,81.86
2018-09-24T06:04:03.826Z,81.52
2018-09-24T06:06:37.102Z,80.88
2018-09-24T06:09:11.671Z,80.26
2018-09-24T06:11:45.471Z,80.17
2018-09-24T06:14:18.770Z,79.82
2018-09-24T06:16:53.232Z,78.65
2018-09-24T06:19:27.138Z,79.36
2018-09-24T06:22:00.968Z,78.01
2018-09-24T06:24:34.282Z,78.00
2018-09-24T06:27:08.682Z,77.50
2018-09-24T06:29:42.222Z,77.57
2018-09-24T06:32:16.090Z,76.74
2018-09-24T06:34:52.146Z,76.23
2018-09-24T06:37:24.692Z,76.31
2018-09-24T06:39:57.978Z,75.28
2018-09-24T06:42:31.843Z,74.65
2018-09-24T06:45:06.692Z,75.35
2018-09-24T06:47:40.084Z,75.30
2018-09-24T06:50:14.093Z,73.95
2018-09-24T06:52:48.708Z,72.37
2018-09-24T06:55:22.952Z,72.47
2018-09-24T06:57:56.235Z,73.01
2018-09-24T07:00:30.462Z,73.16
2018-09-24T07:03:04.934Z,72.25
2018-09-24T07:05:39.023Z,72.33
2018-09-24T07:08:13.612Z,72.03
2018-09-24T07:10:46.610Z,71.96
2018-09-24T07:13:20.947Z,71.17
2018-09-24T07:15:55.160Z,70.98
2018-09-24T07:18:29.224Z,69.68
2018-09-24T07:21:03.167Z,69.68
2018-09-24T07:23:36.402Z,68.68
2018-09-24T07:26:11.080Z,69.91
2018-09-24T07:28:44.729Z,69.57
2018-09-24T07:31:18.131Z,67.00
2018-09-24T07:33:52.567Z,66.36
2018-09-24T07:36:26.587Z,67.34
2018-09-24T07:39:00.370Z,67.05
2018-09-24T07:41:34.305Z,65.60
2018-09-24T07:44:07.684Z,64.59
2018-09-24T07:46:41.675Z,63.49
2018-09-24T07:49:15.507Z,60.88
2018-09-24T07:51:50.074Z,62.42
2018-09-24T07:54:24.073Z,63.01
2018-09-24T07:56:57.591Z,62.32
2018-09-24T07:59:31.998Z,63.30
2018-09-24T08:02:05.347Z,64.34
2018-09-24T08:04:39.868Z,64.83
2018-09-24T08:07:14.815Z,65.12
2018-09-24T08:09:48.021Z,64.93
2018-09-24T08:12:21.945Z,65.17
2018-09-24T08:14:56.534Z,65.39
2018-09-24T08:17:30.381Z,65.31
2018-09-24T08:20:03.642Z,65.54
2018-09-24T08:22:38.252Z,65.38
2018-09-24T08:25:12.140Z,64.94
2018-09-24T08:27:46.102Z,65.04
2018-09-24T08:30:19.447Z,64.64
2018-09-24T08:32:53.838Z,64.64
2018-09-24T08:35:28.177Z,64.89
2018-09-24T08:38:02.483Z,64.39
2018-09-24T08:40:36.271Z,63.42
2018-09-24T08:43:10.155Z,63.02
2018-09-24T08:45:44.302Z,62.56
2018-09-24T08:48:17.928Z,61.68
2018-09-24T08:50:51.742Z,61.81
2018-09-24T08:53:26.362Z,61.95
2018-09-24T08:56:00.162Z,61.88
2018-09-24T08:58:34.294Z,60.79
2018-09-24T09:01:08.096Z,61.14
2018-09-24T09:03:42.255Z,61.28
2018-09-24T09:06:16.121Z,61.38
2018-09-24T09:08:50.182Z,61.49
2018-09-24T09:11:23.985Z,60.76
2018-09-24T09:13:57.909Z,61.30
2018-09-24T09:16:31.900Z,61.19
2018-09-24T09:19:06.126Z,61.68
2018-09-24T09:21:39.990Z,62.25
2018-09-24T09:24:13.899Z,62.81
2018-09-24T09:26:47.317Z,63.18
2018-09-24T09:29:21.741Z,63.01
2018-09-24T09:31:55.711Z,62.27
2018-09-24T09:34:29.924Z,62.38
2018-09-24T09:37:03.816Z,60.43
2018-09-24T09:39:38.000Z,59.38
2018-09-24T09:42:11.799Z,57.25
2018-09-24T09:44:45.196Z,57.82
2018-09-24T09:47:19.705Z,57.08
2018-09-24T09:49:52.985Z,58.28
2018-09-24T09:52:27.456Z,56.65
2018-09-24T09:55:01.828Z,56.65
2018-09-24T09:57:35.637Z,57.27
2018-09-24T10:00:09.007Z,57.46
2018-09-24T10:02:42.801Z,57.39
2018-09-24T10:05:17.567Z,57.77
2018-09-24T10:07:51.496Z,57.83
2018-09-24T10:10:25.971Z,58.05
2018-09-24T10:13:00.389Z,58.23
2018-09-24T10:15:33.740Z,58.94
2018-09-24T10:18:07.579Z,59.57
2018-09-24T10:20:42.031Z,59.51
2018-09-24T10:23:16.037Z,59.66
2018-09-24T10:25:50.039Z,59.77
2018-09-24T10:28:23.316Z,60.20
2018-09-24T10:30:57.972Z,59.97
2018-09-24T10:33:31.954Z,59.39
2018-09-24T10:36:05.795Z,59.26
2018-09-24T10:38:39.664Z,59.11
2018-09-24T10:41:13.562Z,57.96
2018-09-24T10:43:47.366Z,57.21
2018-09-24T10:46:21.335Z,57.80
2018-09-24T10:48:55.587Z,58.03
2018-09-24T10:51:29.591Z,58.44
2018-09-24T10:54:03.607Z,58.33
2018-09-24T10:56:37.485Z,58.70
2018-09-24T10:59:10.791Z,57.78
2018-09-24T11:01:44.687Z,56.30
2018-09-24T11:04:19.249Z,56.29
2018-09-24T11:06:53.122Z,55.76
2018-09-24T11:09:27.006Z,55.58
2018-09-24T11:12:00.952Z,55.71
2018-09-24T11:14:34.802Z,55.86
2018-09-24T11:17:09.075Z,56.04
2018-09-24T11:19:42.867Z,60.93
2018-09-24T11:22:16.787Z,63.81
2018-09-24T11:24:50.654Z,65.59
2018-09-24T11:27:24.517Z,70.50
2018-09-24T11:29:57.858Z,86.76
2018-09-24T11:32:31.817Z,92.47
2018-09-24T11:35:06.465Z,94.51
2018-09-24T11:37:40.556Z,95.84
2018-09-24T11:40:13.985Z,97.29
2018-09-24T11:42:48.877Z,96.95
2018-09-24T11:45:22.532Z,96.92
2018-09-24T11:47:56.567Z,97.51
2018-09-24T11:50:29.878Z,97.61
2018-09-24T11:53:03.939Z,97.95
2018-09-24T11:55:38.001Z,98.28
2018-09-24T11:58:12.449Z,98.73
2018-09-24T12:00:46.184Z,98.45
2018-09-24T12:03:19.462Z,98.61
2018-09-24T12:05:54.116Z,98.70
2018-09-24T12:08:28.405Z,99.56
2018-09-24T12:11:02.391Z,100.00
2018-09-24T12:13:36.264Z,100.00
2018-09-24T12:16:10.330Z,100.00
2018-09-24T12:18:43.673Z,100.00
2018-09-24T12:21:18.196Z,99.95
2018-09-24T12:23:51.616Z,99.85
2018-09-24T12:26:25.480Z,100.00
2018-09-24T12:28:59.532Z,100.00
2018-09-24T12:31:34.060Z,99.93
2018-09-24T12:34:08.292Z,99.49
2018-09-24T12:36:42.180Z,99.59
2018-09-24T12:39:15.525Z,98.82
2018-09-24T12:41:49.947Z,98.30
2018-09-24T12:44:23.305Z,97.81
2018-09-24T12:46:57.770Z,97.94
2018-09-24T12:49:31.687Z,97.59
2018-09-24T12:52:05.996Z,97.17
2018-09-24T12:54:39.282Z,97.66
2018-09-24T12:57:13.290Z,97.97
2018-09-24T12:59:47.231Z,96.59
2018-09-24T13:02:20.997Z,94.95
2018-09-24T13:04:55.660Z,94.36
2018-09-24T13:07:29.524Z,92.73
2018-09-24T13:10:03.878Z,94.44
2018-09-24T13:12:38.025Z,92.59
2018-09-24T13:15:12.299Z,91.29
2018-09-24T13:17:46.780Z,88.87
2018-09-24T13:20:20.223Z,90.75
2018-09-24T13:22:55.948Z,95.26
2018-09-24T13:25:28.937Z,93.66
2018-09-24T13:28:02.833Z,90.25
2018-09-24T13:30:36.876Z,88.48
2018-09-24T13:33:10.861Z,82.22
2018-09-24T13:35:45.610Z,84.35
2018-09-24T13:38:20.370Z,85.32
2018-09-24T13:40:53.811Z,81.09
2018-09-24T13:43:28.810Z,79.53
2018-09-24T13:46:01.621Z,81.86
2018-09-24T13:48:35.449Z,81.08
2018-09-24T13:51:09.430Z,82.49
2018-09-24T13:53:43.283Z,83.00
2018-09-24T13:56:17.156Z,79.39
2018-09-24T13:58:51.168Z,79.71
2018-09-24T14:01:24.994Z,75.69
2018-09-24T14:03:59.811Z,70.98
2018-09-24T14:06:33.082Z,70.42
2018-09-24T14:09:06.943Z,68.53
2018-09-24T14:11:41.033Z,67.53
2018-09-24T14:14:14.678Z,65.97
2018-09-24T14:16:48.646Z,68.64
2018-09-24T14:19:22.315Z,69.49
2018-09-24T14:21:56.873Z,69.05
2018-09-24T14:24:30.706Z,59.72
2018-09-24T14:27:04.794Z,57.23
2018-09-24T14:29:38.630Z,55.81
2018-09-24T14:32:12.589Z,55.51
2018-09-24T14:34:46.534Z,56.02
2018-09-24T14:37:20.389Z,53.54
2018-09-24T14:39:54.269Z,49.85
2018-09-24T14:42:28.120Z,51.54
2018-09-24T14:45:02.024Z,50.92
2018-09-24T14:47:35.892Z,52.86
2018-09-24T14:50:09.165Z,53.54
2018-09-24T14:52:43.666Z,53.25
2018-09-24T14:55:17.816Z,53.96
2018-09-24T14:57:52.104Z,53.83
2018-09-24T15:00:26.002Z,53.46
2018-09-24T15:02:59.475Z,53.70
2018-09-24T15:05:34.049Z,53.19
2018-09-24T15:08:08.107Z,53.74
2018-09-24T15:10:41.415Z,53.15
2018-09-24T15:13:15.326Z,52.90
2018-09-24T15:15:49.745Z,53.54
2018-09-24T15:18:24.772Z,53.78
2018-09-24T15:20:57.764Z,53.94
2018-09-24T15:23:32.404Z,54.12
2018-09-24T15:26:05.790Z,54.01
2018-09-24T15:28:39.899Z,54.47
2018-09-24T15:31:13.845Z,53.97
2018-09-24T15:33:48.745Z,53.86
2018-09-24T15:36:23.921Z,53.60
2018-09-24T15:38:56.588Z,53.59
2018-09-24T15:41:30.727Z,53.73
2018-09-24T15:44:04.947Z,54.00
2018-09-24T15:46:38.884Z,54.36
2018-09-24T15:49:12.771Z,53.99
2018-09-24T15:51:46.090Z,54.04
2018-09-24T15:54:19.950Z,54.53
2018-09-24T15:56:54.405Z,54.29
2018-09-24T15:59:28.540Z,54.32
2018-09-24T16:02:02.493Z,54.44
2018-09-24T16:04:36.399Z,54.50
2018-09-24T16:07:11.602Z,54.50
2018-09-24T16:09:45.570Z,54.74
2018-09-24T16:12:18.939Z,54.80
2018-09-24T16:14:53.382Z,55.03
2018-09-24T16:17:26.683Z,55.01
2018-09-24T16:20:00.566Z,54.89
2018-09-24T16:22:35.044Z,55.26
2018-09-24T16:25:08.903Z,54.95
2018-09-24T16:27:42.173Z,54.97
2018-09-24T16:30:16.078Z,55.48
2018-09-24T16:32:50.618Z,55.60
2018-09-24T16:35:24.443Z,55.54
2018-09-24T16:37:58.353Z,55.85
2018-09-24T16:40:32.432Z,55.74
2018-09-24T16:43:06.445Z,55.74
2018-09-24T16:45:40.589Z,55.59
2018-09-24T16:48:13.902Z,56.00
2018-09-24T16:50:48.345Z,56.65
2018-09-24T16:53:22.233Z,57.25
2018-09-24T16:55:56.113Z,57.96
2018-09-24T16:58:30.104Z,58.35
2018-09-24T17:01:04.038Z,58.22
2018-09-24T17:03:37.492Z,58.54
2018-09-24T17:06:11.405Z,59.21
2018-09-24T17:08:45.820Z,59.36
2018-09-24T17:11:19.719Z,59.82
2018-09-24T17:13:53.595Z,60.19
2018-09-24T17:16:27.653Z,60.99
2018-09-24T17:19:01.707Z,61.50
2018-09-24T17:21:36.258Z,62.54
2018-09-24T17:24:10.065Z,62.46
2018-09-24T17:26:44.025Z,62.79
2018-09-24T17:29:18.012Z,62.88
2018-09-24T17:31:52.036Z,63.69
2018-09-24T17:34:26.067Z,64.09
2018-09-24T17:36:59.415Z,64.10
2018-09-24T17:39:34.065Z,63.95
2018-09-24T17:42:07.972Z,64.17
2018-09-24T17:44:41.916Z,64.20
2018-09-24T17:47:15.864Z,63.90
2018-09-24T17:49:49.720Z,63.95
2018-09-24T17:52:24.982Z,63.98
2018-09-24T17:54:59.244Z,64.11
2018-09-24T17:57:33.465Z,63.89
2018-09-24T18:00:07.196Z,63.53
2018-09-24T18:02:42.262Z,65.59
2018-09-24T18:05:16.379Z,66.23
2018-09-24T18:07:50.846Z,65.41
2018-09-24T18:10:24.773Z,64.38
2018-09-24T18:15:43.669Z,63.27
2018-09-24T18:18:17.408Z,63.45
2018-09-24T18:20:51.407Z,63.57
2018-09-24T18:23:25.685Z,63.65
2018-09-24T18:25:59.952Z,64.01
2018-09-24T18:28:34.028Z,64.59
2018-09-24T18:31:08.077Z,67.25
2018-09-24T18:33:42.345Z,68.11
2018-09-24T18:36:16.012Z,67.36
2018-09-24T18:38:49.914Z,72.18
2018-09-24T18:41:24.290Z,71.31
2018-09-24T18:43:59.158Z,69.04
2018-09-24T18:46:33.786Z,71.32
2018-09-24T18:49:08.575Z,72.15
2018-09-24T18:51:43.699Z,77.13
2018-09-24T18:54:16.758Z,74.30
2018-09-24T18:56:50.723Z,79.61
2018-09-24T18:59:24.037Z,84.20
2018-09-24T19:01:58.543Z,87.63
2018-09-24T19:04:32.413Z,90.47
2018-09-24T19:07:06.512Z,91.88
2018-09-24T19:09:40.640Z,91.05
2018-09-24T19:12:13.990Z,91.33
2018-09-24T19:14:48.628Z,92.35
2018-09-24T19:17:22.635Z,92.25
2018-09-24T19:19:56.508Z,92.46
2018-09-24T19:22:30.484Z,91.17
2018-09-24T19:25:04.342Z,89.81
2018-09-24T19:27:37.898Z,89.64
2018-09-24T19:30:11.942Z,88.12
2018-09-24T19:32:46.384Z,88.85
2018-09-24T19:35:20.390Z,89.61
2018-09-24T19:37:54.292Z,88.52
2018-09-24T19:40:27.718Z,90.29
2018-09-24T19:43:02.324Z,90.51
2018-09-24T19:45:36.182Z,88.52
2018-09-24T19:48:10.359Z,89.46
2018-09-24T19:50:43.787Z,89.70
2018-09-24T19:53:17.748Z,89.96
2018-09-24T19:55:51.757Z,90.32
2018-09-24T19:58:25.715Z,90.37
2018-09-24T20:01:00.303Z,89.77
2018-09-24T20:03:34.189Z,89.67
2018-09-24T20:06:08.116Z,88.71
2018-09-24T20:08:41.561Z,89.64
2018-09-24T20:11:15.748Z,88.79
2018-09-24T20:13:50.285Z,89.08
2018-09-24T20:16:24.437Z,88.92
2018-09-24T20:18:58.449Z,88.72
2018-09-24T20:21:32.557Z,88.59
2018-09-24T20:24:06.622Z,90.26
2018-09-24T20:26:40.239Z,89.47
2018-09-24T20:29:14.216Z,90.43
2018-09-24T20:31:48.783Z,89.57
2018-09-24T20:34:22.876Z,89.59
2018-09-24T20:36:57.342Z,89.88
2018-09-24T20:39:31.388Z,90.37
2018-09-24T20:42:05.457Z,91.08
2018-09-24T20:44:39.478Z,90.40
2018-09-24T20:47:13.370Z,89.35
2018-09-24T20:49:47.460Z,90.56
2018-09-24T20:52:21.502Z,89.90
2018-09-24T20:54:55.527Z,88.92
2018-09-24T20:57:29.807Z,87.95
2018-09-24T21:00:03.600Z,86.84
2018-09-24T21:02:37.685Z,86.48
2018-09-24T21:05:11.059Z,84.37
2018-09-24T21:07:45.092Z,82.53
2018-09-24T21:10:19.679Z,81.68
2018-09-24T21:12:53.041Z,80.54
2018-09-24T21:15:27.027Z,80.22
2018-09-24T21:18:01.554Z,78.78
2018-09-24T21:20:35.412Z,77.18
2018-09-24T21:23:08.865Z,76.82
2018-09-24T21:25:42.757Z,77.24
2018-09-24T21:28:17.618Z,77.81
2018-09-24T21:30:50.860Z,78.38
2018-09-24T21:33:24.950Z,78.54
2018-09-24T21:35:59.515Z,78.98
2018-09-24T21:38:33.670Z,78.76
2018-09-24T21:41:07.625Z,78.57
2018-09-24T21:43:41.021Z,78.79
2018-09-24T21:46:15.161Z,78.92
2018-09-24T21:48:48.870Z,79.09
2018-09-24T21:51:23.473Z,79.19
2018-09-24T21:53:56.825Z,79.08
2018-09-24T21:56:30.607Z,79.02
2018-09-24T21:59:05.527Z,78.76
2018-09-24T22:01:40.227Z,79.05
2018-09-24T22:04:13.375Z,78.89
2018-09-24T22:06:47.332Z,78.33
2018-09-24T22:09:20.507Z,78.52
2018-09-24T22:11:55.126Z,78.73
2018-09-24T22:14:29.125Z,78.54
2018-09-24T22:17:03.136Z,78.68
2018-09-24T22:19:36.989Z,78.53
2018-09-24T22:22:10.365Z,78.31
2018-09-24T22:24:45.005Z,78.52
2018-09-24T22:27:18.843Z,78.69
2018-09-24T22:29:52.215Z,78.67
2018-09-24T22:32:26.566Z,78.53
2018-09-24T22:34:59.886Z,78.49
2018-09-24T22:37:34.273Z,78.47
2018-09-24T22:40:08.165Z,78.35
2018-09-24T22:42:41.545Z,78.19
2018-09-24T22:45:16.056Z,77.74
2018-09-24T22:47:49.206Z,77.44
2018-09-24T22:50:23.609Z,77.52
2018-09-24T22:52:57.357Z,77.36
2018-09-24T22:55:31.445Z,76.79
2018-09-24T22:58:06.266Z,76.93
2018-09-24T23:00:39.643Z,77.12
2018-09-24T23:03:13.630Z,76.73
2018-09-24T23:05:46.948Z,76.60
2018-09-24T23:08:21.347Z,76.57
2018-09-24T23:10:54.819Z,76.65
2018-09-24T23:13:29.399Z,76.50
2018-09-24T23:16:03.064Z,76.35
2018-09-24T23:18:37.333Z,76.24
2018-09-24T23:21:10.801Z,74.73
2018-09-24T23:23:44.778Z,75.21
2018-09-24T23:26:18.807Z,75.82
2018-09-24T23:28:52.778Z,74.36
2018-09-24T23:31:27.601Z,75.27
2018-09-24T23:34:01.625Z,76.02
2018-09-24T23:36:35.419Z,76.21
2018-09-24T23:39:08.789Z,76.38
2018-09-24T23:41:43.224Z,76.38
2018-09-24T23:44:16.979Z,76.40
2018-09-24T23:46:50.496Z,76.06
2018-09-24T23:49:25.082Z,75.98
2018-09-24T23:51:58.550Z,75.94
2018-09-24T23:54:32.627Z,75.53
2018-09-24T23:57:07.214Z,75.69
2018-09-24T23:59:41.229Z,75.64
